KLUF/LUF METAR and TAF weather

Enter ICAO airport designator
Station Type Date Time Source
KLUF METAR 2019/06/16 04:58 UTC NOAA

KLUF 160458Z AUTO 00000KT 10SM CLR 32/08 A2974 RMK AO2 SLP056 T03190075


Station Type Date Time Source
KLUF Decoded METAR 2019/06/16 04:58 UTC NOAA

Luke Air Force Base / Phoenix, AZ, United States (KLUF) 33-32N 112-23W 332M
Jun 16, 2019 - 12:58 AM EDT / 2019.06.16 0458 UTC
Wind: Calm:0
Visibility: 10 mile(s):0
Sky conditions: clear
Temperature: 89.4 F (31.9 C)
Dew Point: 45.5 F (7.5 C)
Relative Humidity: 21%
Pressure (altimeter): 29.74 in. Hg (1007 hPa)
ob: KLUF 160458Z AUTO 00000KT 10SM CLR 32/08 A2974 RMK AO2 SLP056 T03190075
cycle: 5

Station Type Date Time Source
KLUF TAF 2019/06/14 21:51 UTC NOAA

TAF TAF
AMD KLUF 142146Z 1421/1602 22012G20KT 9999 FEW200 510009 QNH2973INS
BECMG 1501/1502 VRB06KT 9999 SKC QNH2968INS
BECMG 1518/1519 22012KT 9999 FEW150 QNH2970INS
BECMG 1520/1521 21012G22KT 9999 FEW150 510009 QNH2967INS TX40/1423Z TN23/1513Z LAST NO
AMDS AFT 1422 NEXT 1704

Example: see airport list